Time;durP1;ratioP1;P1;durP2;ratioP2;P2;SDS_P1;SDS_P2;PMS_P1;PMS_P2;Temp;Humidity;BMP_temperature;BMP_pressure;BME280_temperature;BME280_humidity;BME280_pressure;Samples;Min_cycle;Max_cycle;Signal;HPM_P1;HPM_P2
2021/05/02 00:00:13;;;;;;;8.02;7.10;;;12.20;45.50;;;;;;1490633;39;20042;-52
2021/05/02 00:01:34;;;;;;;8.05;6.68;;;12.20;45.70;;;;;;1489633;39;20068;-51
2021/05/02 00:02:57;;;;;;;7.90;6.68;;;12.10;45.30;;;;;;1489722;39;20085;-53
2021/05/02 00:04:18;;;;;;;7.30;6.60;;;12.10;45.40;;;;;;1491631;39;20036;-51
2021/05/02 00:05:39;;;;;;;7.85;7.03;;;12.10;45.40;;;;;;1488590;39;20048;-51
2021/05/02 00:07:02;;;;;;;7.93;6.43;;;12.00;45.30;;;;;;1490336;39;20274;-49
2021/05/02 00:08:23;;;;;;;7.85;6.82;;;12.00;45.50;;;;;;1489450;39;20036;-53
2021/05/02 00:09:44;;;;;;;10.85;6.30;;;12.00;45.60;;;;;;1490054;39;20144;-50
2021/05/02 00:11:08;;;;;;;8.98;6.95;;;12.00;45.70;;;;;;1488380;39;20330;-50
2021/05/02 00:12:29;;;;;;;7.68;6.80;;;12.00;45.80;;;;;;1490867;39;20421;-53
2021/05/02 00:13:50;;;;;;;7.53;6.82;;;12.00;45.80;;;;;;1490592;39;20024;-51
2021/05/02 00:15:15;;;;;;;7.60;6.90;;;11.90;45.80;;;;;;1490375;39;20043;-49
2021/05/02 00:16:36;;;;;;;7.20;6.50;;;11.90;46.00;;;;;;1489708;39;20032;-53
2021/05/02 00:17:57;;;;;;;7.72;6.95;;;11.90;45.90;;;;;;1491101;39;20290;-53
2021/05/02 00:19:19;;;;;;;7.85;6.80;;;11.90;46.00;;;;;;1491402;39;20068;-50
2021/05/02 00:20:41;;;;;;;7.63;6.82;;;11.90;46.20;;;;;;1486323;39;20372;-51
2021/05/02 00:22:02;;;;;;;8.65;6.93;;;11.80;46.10;;;;;;1489795;39;20031;-49
2021/05/02 00:23:24;;;;;;;7.95;7.10;;;11.80;46.20;;;;;;1489257;39;20479;-50
2021/05/02 00:24:47;;;;;;;7.82;6.88;;;11.80;46.30;;;;;;1490023;39;20028;-50
2021/05/02 00:26:10;;;;;;;7.68;6.90;;;11.80;46.30;;;;;;1491076;39;20120;-52
2021/05/02 00:27:31;;;;;;;9.70;7.50;;;11.80;46.40;;;;;;1491400;39;20047;-52
2021/05/02 00:28:52;;;;;;;8.88;7.15;;;11.80;46.40;;;;;;1491739;39;20031;-50
2021/05/02 00:30:17;;;;;;;8.02;7.22;;;11.70;46.50;;;;;;1491063;39;20042;-53
2021/05/02 00:31:43;;;;;;;8.20;6.88;;;11.70;46.70;;;;;;1491144;39;20499;-52
2021/05/02 00:33:05;;;;;;;7.57;6.68;;;11.70;46.80;;;;;;1490392;39;20320;-52
2021/05/02 00:34:27;;;;;;;9.50;7.43;;;11.70;46.60;;;;;;1492127;39;20051;-54
2021/05/02 00:35:49;;;;;;;8.45;7.63;;;11.70;46.70;;;;;;1489224;39;20313;-50
2021/05/02 00:37:10;;;;;;;9.75;7.63;;;11.70;47.00;;;;;;1491231;39;20042;-54
2021/05/02 00:38:36;;;;;;;10.60;7.88;;;11.60;46.90;;;;;;1491163;39;20026;-53
2021/05/02 00:39:57;;;;;;;10.52;7.57;;;11.60;47.30;;;;;;1491781;39;20039;-53
2021/05/02 00:41:28;;;;;;;8.60;7.78;;;11.60;47.00;;;;;;1491528;39;20096;-52
2021/05/02 00:42:51;;;;;;;8.40;7.60;;;11.60;47.60;;;;;;1491166;39;20016;-52
2021/05/02 00:44:25;;;;;;;8.52;7.55;;;11.60;47.30;;;;;;1491572;39;20043;-50
2021/05/02 00:45:54;;;;;;;8.38;7.57;;;11.60;47.60;;;;;;1491408;39;20024;-51
2021/05/02 00:47:28;;;;;;;9.88;7.38;;;11.50;47.20;;;;;;1490928;39;20128;-50
2021/05/02 00:49:01;;;;;;;9.23;8.10;;;11.50;47.60;;;;;;1490398;39;20050;-51
2021/05/02 00:50:28;;;;;;;10.38;8.20;;;11.50;47.60;;;;;;1489190;39;20071;-51
2021/05/02 00:51:58;;;;;;;9.75;8.52;;;11.50;47.50;;;;;;1491124;39;20020;-51
2021/05/02 00:53:21;;;;;;;10.15;7.80;;;11.50;47.70;;;;;;1491254;39;20028;-49
2021/05/02 00:54:47;;;;;;;9.43;8.43;;;11.50;47.60;;;;;;1491229;39;20079;-52
2021/05/02 00:56:22;;;;;;;9.30;8.32;;;11.40;47.70;;;;;;1490641;39;20352;-53
2021/05/02 00:58:04;;;;;;;12.02;8.77;;;11.40;48.10;;;;;;1490386;39;20195;-51
2021/05/02 00:59:41;;;;;;;10.80;8.13;;;11.40;48.20;;;;;;1490090;39;20038;-53
2021/05/02 01:01:04;;;;;;;8.80;7.72;;;11.40;48.50;;;;;;1490212;39;20521;-51
2021/05/02 01:02:28;;;;;;;9.90;8.45;;;11.40;47.60;;;;;;1491543;39;20032;-52
2021/05/02 01:03:50;;;;;;;9.23;8.00;;;11.40;47.90;;;;;;1490685;39;20028;-54
2021/05/02 01:05:12;;;;;;;9.95;8.43;;;11.30;47.80;;;;;;1491385;39;20039;-50
2021/05/02 01:06:33;;;;;;;10.35;8.77;;;11.30;47.80;;;;;;1488984;39;20021;-49
2021/05/02 01:07:56;;;;;;;9.60;8.25;;;11.30;48.00;;;;;;1489917;39;20357;-52
2021/05/02 01:09:17;;;;;;;9.88;8.68;;;11.30;48.10;;;;;;1491126;39;20048;-50
2021/05/02 01:10:38;;;;;;;9.50;8.50;;;11.30;48.20;;;;;;1491047;39;20080;-51
2021/05/02 01:12:01;;;;;;;9.80;8.55;;;11.20;48.10;;;;;;1490321;39;20046;-53
2021/05/02 01:13:22;;;;;;;10.50;9.23;;;11.20;48.30;;;;;;1489368;39;20050;-48
2021/05/02 01:14:47;;;;;;;11.52;9.23;;;11.20;48.30;;;;;;1491041;39;20027;-50
2021/05/02 01:16:12;;;;;;;10.27;8.57;;;11.20;48.60;;;;;;1491548;39;20044;-54
2021/05/02 01:17:37;;;;;;;11.23;9.10;;;11.20;48.50;;;;;;1491592;39;20032;-52
2021/05/02 01:18:58;;;;;;;9.38;8.45;;;11.10;48.50;;;;;;1491556;39;20358;-51
2021/05/02 01:20:20;;;;;;;10.02;8.98;;;11.20;48.50;;;;;;1487492;39;20028;-51
2021/05/02 01:21:41;;;;;;;10.63;9.25;;;11.20;48.70;;;;;;1490175;39;20234;-49
2021/05/02 01:23:10;;;;;;;10.38;9.18;;;11.10;48.80;;;;;;1490753;39;20062;-48
2021/05/02 01:24:31;;;;;;;11.13;9.20;;;11.10;49.00;;;;;;1491174;39;20024;-50
2021/05/02 01:25:54;;;;;;;10.77;9.68;;;11.10;48.90;;;;;;1490996;39;20028;-52
2021/05/02 01:27:30;;;;;;;10.63;9.43;;;11.10;49.00;;;;;;1491006;39;20038;-53
2021/05/02 01:28:54;;;;;;;10.25;9.13;;;11.10;49.40;;;;;;1490893;39;20352;-53
2021/05/02 01:30:15;;;;;;;10.88;9.18;;;11.10;49.20;;;;;;1491282;39;20035;-50
2021/05/02 01:31:37;;;;;;;11.35;9.40;;;11.10;49.20;;;;;;1488568;39;20032;-52
2021/05/02 01:32:59;;;;;;;11.55;9.35;;;11.00;49.20;;;;;;1487010;39;20052;-51
2021/05/02 01:34:19;;;;;;;10.57;9.23;;;11.00;49.20;;;;;;1490252;39;20318;-50
2021/05/02 01:35:40;;;;;;;11.68;9.70;;;11.10;49.40;;;;;;1491621;39;20079;-50
2021/05/02 01:37:01;;;;;;;13.15;11.07;;;11.00;49.40;;;;;;1490691;39;20046;-52
2021/05/02 01:38:24;;;;;;;11.75;10.07;;;11.00;49.50;;;;;;1489189;39;20032;-53
2021/05/02 01:39:46;;;;;;;13.25;10.65;;;11.00;49.70;;;;;;1490853;39;20060;-52
2021/05/02 01:41:07;;;;;;;12.00;10.25;;;11.00;50.20;;;;;;1491234;39;20028;-52
2021/05/02 01:42:28;;;;;;;13.73;10.27;;;11.00;49.70;;;;;;1489965;39;20039;-51
2021/05/02 01:43:49;;;;;;;13.10;10.75;;;11.00;49.80;;;;;;1489979;39;20028;-55
2021/05/02 01:45:10;;;;;;;12.38;10.70;;;11.00;49.80;;;;;;1491450;39;20035;-53
2021/05/02 01:46:41;;;;;;;15.45;12.07;;;11.00;49.90;;;;;;1490591;39;20090;-52
2021/05/02 01:48:05;;;;;;;11.95;10.30;;;11.00;50.30;;;;;;1487064;40;20024;-52
2021/05/02 01:49:27;;;;;;;12.98;11.55;;;11.00;50.10;;;;;;1490288;39;20031;-52
2021/05/02 01:50:53;;;;;;;14.82;11.60;;;11.00;50.00;;;;;;1491049;39;20093;-49
2021/05/02 01:52:16;;;;;;;13.95;12.38;;;11.00;50.30;;;;;;1491387;39;20049;-53
2021/05/02 01:53:38;;;;;;;14.40;10.93;;;11.00;50.20;;;;;;1491087;39;20129;-49
2021/05/02 01:55:01;;;;;;;15.00;11.20;;;11.00;50.20;;;;;;1489032;39;20044;-49
2021/05/02 01:56:23;;;;;;;14.25;11.77;;;11.00;50.20;;;;;;1490508;39;20047;-51
2021/05/02 01:57:46;;;;;;;13.75;11.63;;;11.00;50.30;;;;;;1491588;39;20079;-51
2021/05/02 01:59:08;;;;;;;13.32;11.82;;;11.00;50.40;;;;;;1491385;39;20315;-52
2021/05/02 02:00:43;;;;;;;14.23;11.52;;;11.00;50.40;;;;;;1490803;39;20077;-52
2021/05/02 02:02:06;;;;;;;14.98;12.00;;;11.00;50.90;;;;;;1488729;39;20197;-51
2021/05/02 02:03:27;;;;;;;16.02;12.38;;;11.00;50.50;;;;;;1491228;39;20245;-49
2021/05/02 02:04:52;;;;;;;15.57;11.68;;;11.00;50.50;;;;;;1491597;39;20040;-51
2021/05/02 02:06:15;;;;;;;16.10;12.55;;;11.00;50.80;;;;;;1490880;39;20047;-52
2021/05/02 02:07:39;;;;;;;14.38;11.82;;;11.00;50.80;;;;;;1491103;39;20035;-51
2021/05/02 02:09:06;;;;;;;14.63;12.38;;;11.00;50.80;;;;;;1490241;39;20055;-54
2021/05/02 02:10:30;;;;;;;14.57;11.80;;;11.00;51.20;;;;;;1491118;39;20258;-54
2021/05/02 02:11:52;;;;;;;14.93;11.35;;;11.00;51.00;;;;;;1490834;39;20026;-53
2021/05/02 02:13:16;;;;;;;14.02;11.63;;;11.00;51.00;;;;;;1491041;39;20101;-51
2021/05/02 02:14:39;;;;;;;16.50;11.90;;;11.00;51.10;;;;;;1488841;39;20056;-50
2021/05/02 02:16:04;;;;;;;13.20;11.23;;;11.00;51.20;;;;;;1490273;39;20039;-50
2021/05/02 02:17:24;;;;;;;18.50;13.52;;;11.00;51.30;;;;;;1491412;39;20330;-50
2021/05/02 02:18:45;;;;;;;18.17;12.75;;;11.00;51.20;;;;;;1490944;39;20039;-54
2021/05/02 02:20:07;;;;;;;17.20;13.05;;;11.00;51.30;;;;;;1491157;39;20032;-52
2021/05/02 02:21:28;;;;;;;15.70;13.20;;;11.00;51.40;;;;;;1489791;39;20031;-50
2021/05/02 02:22:52;;;;;;;15.45;12.82;;;11.00;51.40;;;;;;1490841;39;20419;-51
2021/05/02 02:24:14;;;;;;;15.75;12.50;;;11.00;51.60;;;;;;1491124;39;20438;-49
2021/05/02 02:25:42;;;;;;;16.00;12.95;;;11.00;51.50;;;;;;1490095;39;20030;-53
2021/05/02 02:27:03;;;;;;;15.52;13.02;;;11.00;51.90;;;;;;1491265;39;20042;-50
2021/05/02 02:28:25;;;;;;;17.63;13.10;;;11.00;51.70;;;;;;1490370;39;20269;-52
2021/05/02 02:29:48;;;;;;;17.50;13.48;;;11.10;51.80;;;;;;1491518;39;20055;-55
2021/05/02 02:31:12;;;;;;;16.17;12.85;;;11.00;51.90;;;;;;1491059;39;20289;-49
2021/05/02 02:32:35;;;;;;;15.95;12.25;;;11.10;52.10;;;;;;1490765;39;20042;-52
2021/05/02 02:33:58;;;;;;;15.80;12.77;;;11.10;51.90;;;;;;1491196;39;20063;-49
2021/05/02 02:35:25;;;;;;;15.75;12.68;;;11.10;52.00;;;;;;1490978;39;20116;-52
2021/05/02 02:36:46;;;;;;;15.50;12.88;;;11.10;52.20;;;;;;1491133;39;20044;-54
2021/05/02 02:38:09;;;;;;;15.57;11.77;;;11.10;52.00;;;;;;1491214;39;20067;-51
2021/05/02 02:39:30;;;;;;;14.73;12.93;;;11.10;52.10;;;;;;1490685;39;20224;-52
2021/05/02 02:40:53;;;;;;;16.35;12.85;;;11.10;52.10;;;;;;1489897;39;20027;-51
2021/05/02 02:42:15;;;;;;;17.27;13.00;;;11.10;52.20;;;;;;1491183;39;20046;-51
2021/05/02 02:43:40;;;;;;;17.85;12.93;;;11.10;52.20;;;;;;1491029;39;20019;-52
2021/05/02 02:45:07;;;;;;;16.85;12.52;;;11.10;52.20;;;;;;1490753;39;20047;-53
2021/05/02 02:46:29;;;;;;;15.75;12.05;;;11.10;52.40;;;;;;1490393;39;20129;-50
2021/05/02 02:47:53;;;;;;;15.82;12.70;;;11.10;52.80;;;;;;1489063;39;20364;-52
2021/05/02 02:49:20;;;;;;;14.88;12.13;;;11.10;52.40;;;;;;1489947;39;20019;-51
2021/05/02 02:50:43;;;;;;;15.20;12.35;;;11.10;52.50;;;;;;1490787;39;20039;-50
2021/05/02 02:52:08;;;;;;;16.08;12.57;;;11.10;52.40;;;;;;1491040;39;20064;-52
2021/05/02 02:53:31;;;;;;;15.82;12.38;;;11.10;52.50;;;;;;1490841;39;20294;-52
2021/05/02 02:55:02;;;;;;;13.98;11.88;;;11.10;52.50;;;;;;1491402;39;20366;-50
2021/05/02 02:56:23;;;;;;;14.82;12.05;;;11.10;52.70;;;;;;1488342;39;20356;-50
2021/05/02 02:58:15;;;;;;;18.60;12.15;;;11.10;52.40;;;;;;1489336;39;20072;-52
2021/05/02 02:59:38;;;;;;;16.98;11.63;;;11.10;53.10;;;;;;1487345;39;20121;-49
2021/05/02 03:01:01;;;;;;;14.18;11.82;;;11.10;52.40;;;;;;1490760;39;20023;-53
2021/05/02 03:02:23;;;;;;;16.63;12.50;;;11.10;52.50;;;;;;1489737;39;20238;-50
2021/05/02 03:03:46;;;;;;;14.73;11.95;;;11.10;52.50;;;;;;1490738;39;20035;-51
2021/05/02 03:05:08;;;;;;;16.88;12.13;;;11.10;52.50;;;;;;1491084;39;20036;-50
2021/05/02 03:06:29;;;;;;;15.95;12.32;;;11.10;52.70;;;;;;1490394;39;20347;-50
2021/05/02 03:07:52;;;;;;;14.20;11.27;;;11.10;52.70;;;;;;1490432;39;20129;-51
2021/05/02 03:09:15;;;;;;;13.60;11.38;;;11.10;52.80;;;;;;1490929;39;20039;-53
2021/05/02 03:10:40;;;;;;;15.63;11.68;;;11.10;53.00;;;;;;1490269;39;20040;-52
2021/05/02 03:12:01;;;;;;;14.50;11.32;;;11.10;53.00;;;;;;1489615;39;20372;-50
2021/05/02 03:13:22;;;;;;;13.82;11.27;;;11.10;52.80;;;;;;1489642;39;20042;-51
2021/05/02 03:14:43;;;;;;;14.35;11.63;;;11.10;52.80;;;;;;1489067;39;20028;-49
2021/05/02 03:16:04;;;;;;;14.50;11.35;;;11.10;52.90;;;;;;1489380;39;20035;-52
2021/05/02 03:17:30;;;;;;;14.70;11.00;;;11.10;52.90;;;;;;1487444;39;20060;-51
2021/05/02 03:19:18;;;;;;;11.75;10.52;;;11.10;53.10;;;;;;1492054;39;20023;-52
2021/05/02 03:20:41;;;;;;;15.10;10.77;;;11.10;53.50;;;;;;1490929;39;20384;-54
2021/05/02 03:22:18;;;;;;;15.07;10.45;;;11.10;52.80;;;;;;1490458;39;20032;-51
2021/05/02 03:23:45;;;;;;;13.25;10.43;;;11.10;53.20;;;;;;1489343;39;20047;-50
2021/05/02 03:25:10;;;;;;;14.40;10.55;;;11.10;53.20;;;;;;1486386;40;20112;-50
2021/05/02 03:26:32;;;;;;;15.18;11.02;;;11.10;52.90;;;;;;1491046;39;20349;-53
2021/05/02 03:28:00;;;;;;;12.73;10.02;;;11.10;52.70;;;;;;1490070;39;20367;-51
2021/05/02 03:29:23;;;;;;;12.85;9.68;;;11.10;53.00;;;;;;1490273;39;20028;-53
2021/05/02 03:30:46;;;;;;;16.33;10.70;;;11.10;52.80;;;;;;1490908;39;20026;-52
2021/05/02 03:32:10;;;;;;;13.77;10.43;;;11.10;53.00;;;;;;1490531;39;20036;-49
2021/05/02 03:33:39;;;;;;;13.73;10.60;;;11.10;53.00;;;;;;1490277;39;20059;-50
2021/05/02 03:35:04;;;;;;;12.48;10.27;;;11.10;53.20;;;;;;1490074;39;20026;-54
2021/05/02 03:36:50;;;;;;;12.20;10.52;;;11.10;53.00;;;;;;1489920;39;20048;-51
2021/05/02 03:38:28;;;;;;;15.68;10.52;;;11.10;53.10;;;;;;1491695;39;20028;-53
2021/05/02 03:39:51;;;;;;;11.50;9.50;;;11.10;53.00;;;;;;1490551;39;20034;-53
2021/05/02 03:41:13;;;;;;;13.27;9.88;;;11.10;52.80;;;;;;1490823;39;20035;-51
2021/05/02 03:42:34;;;;;;;12.48;10.00;;;11.10;52.80;;;;;;1491029;39;20043;-52
2021/05/02 03:43:55;;;;;;;12.70;10.23;;;11.10;52.90;;;;;;1490433;39;20504;-53
2021/05/02 03:45:16;;;;;;;12.63;10.32;;;11.10;52.90;;;;;;1489266;39;20031;-51
2021/05/02 03:46:37;;;;;;;11.90;9.98;;;11.10;53.00;;;;;;1490074;39;20027;-52
2021/05/02 03:47:58;;;;;;;12.43;9.48;;;11.00;53.00;;;;;;1488598;39;20029;-52
2021/05/02 03:49:19;;;;;;;10.90;9.18;;;11.00;53.00;;;;;;1490969;39;20031;-51
2021/05/02 03:50:39;;;;;;;14.10;9.68;;;11.00;53.10;;;;;;1489009;39;20038;-52
2021/05/02 03:52:01;;;;;;;12.55;9.60;;;11.00;53.10;;;;;;1489410;39;20024;-53
2021/05/02 03:53:22;;;;;;;11.82;9.75;;;11.00;53.10;;;;;;1490580;39;20032;-52
2021/05/02 03:54:43;;;;;;;11.80;9.23;;;11.00;53.10;;;;;;1490908;39;20308;-53
2021/05/02 03:56:04;;;;;;;12.50;8.57;;;11.00;53.20;;;;;;1491383;39;20079;-53
2021/05/02 03:57:25;;;;;;;9.75;8.73;;;11.00;53.10;;;;;;1490995;39;20019;-52
2021/05/02 03:58:46;;;;;;;11.93;8.90;;;11.00;53.20;;;;;;1490526;39;20024;-54
2021/05/02 04:00:08;;;;;;;11.63;8.52;;;11.00;53.20;;;;;;1489717;39;20032;-53
2021/05/02 04:01:28;;;;;;;11.18;8.30;;;11.00;53.20;;;;;;1491874;39;20035;-53
2021/05/02 04:02:49;;;;;;;11.35;9.00;;;11.00;53.10;;;;;;1489725;39;20036;-54
2021/05/02 04:04:12;;;;;;;10.77;8.80;;;11.00;53.20;;;;;;1491639;39;20329;-53
2021/05/02 04:05:33;;;;;;;12.50;7.95;;;11.00;53.20;;;;;;1491609;39;20257;-54
2021/05/02 04:07:10;;;;;;;9.50;7.93;;;11.00;53.20;;;;;;1491341;39;20035;-54
2021/05/02 04:08:31;;;;;;;12.20;8.32;;;11.00;53.30;;;;;;1489918;39;20039;-54
2021/05/02 04:09:52;;;;;;;9.52;7.72;;;11.00;53.00;;;;;;1491151;39;20035;-53
2021/05/02 04:11:12;;;;;;;12.05;8.43;;;11.00;53.10;;;;;;1491496;39;20035;-53
2021/05/02 04:12:33;;;;;;;9.50;8.50;;;10.90;53.10;;;;;;1489153;39;20379;-52
2021/05/02 04:13:54;;;;;;;10.23;8.43;;;11.00;53.20;;;;;;1489710;39;20137;-53
2021/05/02 04:15:15;;;;;;;11.02;8.65;;;11.00;53.30;;;;;;1490459;39;20084;-52
2021/05/02 04:16:37;;;;;;;9.85;7.95;;;11.00;53.20;;;;;;1490059;39;20417;-50
2021/05/02 04:17:58;;;;;;;10.45;8.25;;;11.00;53.20;;;;;;1489398;39;20075;-54
2021/05/02 04:19:18;;;;;;;10.65;8.55;;;11.00;53.20;;;;;;1491367;39;20376;-52
2021/05/02 04:20:39;;;;;;;13.05;8.52;;;11.00;53.20;;;;;;1491278;39;20072;-53
2021/05/02 04:22:00;;;;;;;10.25;8.63;;;11.00;53.20;;;;;;1491265;39;20094;-50
2021/05/02 04:23:21;;;;;;;9.45;8.07;;;11.00;53.30;;;;;;1491205;39;20039;-53
2021/05/02 04:24:48;;;;;;;9.27;7.53;;;11.00;53.30;;;;;;1491045;39;20360;-51
2021/05/02 04:26:08;;;;;;;11.98;8.43;;;11.00;53.30;;;;;;1490532;39;20380;-51
2021/05/02 04:27:29;;;;;;;13.32;8.27;;;11.00;53.20;;;;;;1490665;39;20708;-53
2021/05/02 04:28:51;;;;;;;9.00;7.72;;;10.90;53.10;;;;;;1486626;39;20338;-52
2021/05/02 04:30:12;;;;;;;8.90;7.63;;;10.90;53.20;;;;;;1485218;40;20035;-50
2021/05/02 04:31:33;;;;;;;10.60;8.25;;;11.00;53.20;;;;;;1486164;39;20028;-51
2021/05/02 04:32:53;;;;;;;9.02;7.50;;;11.00;53.20;;;;;;1491244;39;20242;-52
2021/05/02 04:34:14;;;;;;;10.77;7.80;;;11.00;53.20;;;;;;1491574;39;20058;-52
2021/05/02 04:35:35;;;;;;;10.15;8.05;;;10.90;53.20;;;;;;1489906;39;20353;-51
2021/05/02 04:36:57;;;;;;;11.82;8.73;;;11.00;53.30;;;;;;1490864;39;20075;-50
2021/05/02 04:38:18;;;;;;;12.57;8.15;;;11.00;53.30;;;;;;1491378;39;20043;-49
2021/05/02 04:39:39;;;;;;;10.00;8.30;;;11.00;53.20;;;;;;1491325;39;20032;-51
2021/05/02 04:41:00;;;;;;;10.82;7.97;;;11.00;53.20;;;;;;1490281;39;20039;-51
2021/05/02 04:42:21;;;;;;;9.15;7.90;;;10.90;53.20;;;;;;1488283;39;20709;-51
2021/05/02 04:43:42;;;;;;;9.13;7.15;;;11.00;53.20;;;;;;1491237;39;20032;-51
2021/05/02 04:45:03;;;;;;;8.38;7.30;;;11.00;53.20;;;;;;1491271;39;20024;-52
2021/05/02 04:46:25;;;;;;;8.73;7.55;;;11.00;53.20;;;;;;1488868;39;20028;-51
2021/05/02 04:47:46;;;;;;;11.25;8.23;;;11.00;53.20;;;;;;1489248;39;20031;-54
2021/05/02 04:49:08;;;;;;;10.35;7.72;;;11.00;53.20;;;;;;1490715;39;20031;-54
2021/05/02 04:50:30;;;;;;;8.45;7.30;;;10.90;53.20;;;;;;1491284;39;20035;-53
2021/05/02 04:51:51;;;;;;;10.90;7.53;;;11.00;53.20;;;;;;1490140;39;20036;-54
2021/05/02 04:53:12;;;;;;;10.32;7.82;;;10.90;53.20;;;;;;1490911;39;20038;-53
2021/05/02 04:54:33;;;;;;;10.07;7.82;;;10.90;53.20;;;;;;1490227;39;20039;-51
2021/05/02 04:55:53;;;;;;;10.80;7.97;;;11.00;53.30;;;;;;1490325;39;20039;-52
2021/05/02 04:57:14;;;;;;;8.70;7.68;;;11.00;53.30;;;;;;1489317;39;20028;-52
2021/05/02 04:58:35;;;;;;;11.02;8.25;;;11.00;53.30;;;;;;1486585;40;20016;-50
2021/05/02 04:59:56;;;;;;;11.23;7.57;;;11.00;53.20;;;;;;1489928;39;20023;-49
2021/05/02 05:01:17;;;;;;;8.18;7.15;;;11.00;53.20;;;;;;1490761;39;20121;-53
2021/05/02 05:02:38;;;;;;;10.07;7.53;;;10.90;53.20;;;;;;1490754;39;20205;-53
2021/05/02 05:03:59;;;;;;;8.02;7.07;;;10.90;53.20;;;;;;1490518;39;20044;-51
2021/05/02 05:05:20;;;;;;;10.52;8.05;;;11.00;53.20;;;;;;1490132;39;20027;-52
2021/05/02 05:06:41;;;;;;;10.27;7.40;;;10.90;53.20;;;;;;1490619;39;20180;-52
2021/05/02 05:08:02;;;;;;;10.70;6.97;;;11.00;53.20;;;;;;1491012;39;20281;-53
2021/05/02 05:09:23;;;;;;;9.23;7.45;;;11.00;53.20;;;;;;1490243;39;20071;-52
2021/05/02 05:10:44;;;;;;;10.52;6.72;;;10.90;53.20;;;;;;1491046;39;20042;-52
2021/05/02 05:12:05;;;;;;;8.07;6.78;;;10.90;53.20;;;;;;1490386;39;20382;-50
2021/05/02 05:13:26;;;;;;;9.20;7.07;;;10.90;53.20;;;;;;1490123;39;20024;-50
2021/05/02 05:14:47;;;;;;;8.32;6.47;;;10.90;53.10;;;;;;1490849;39;20296;-52
2021/05/02 05:16:08;;;;;;;10.38;7.18;;;10.90;53.10;;;;;;1491069;39;20137;-51
2021/05/02 05:17:29;;;;;;;9.07;6.90;;;10.90;53.20;;;;;;1490321;39;20036;-52
2021/05/02 05:18:50;;;;;;;8.38;6.60;;;10.90;53.10;;;;;;1490943;39;20532;-51
2021/05/02 05:20:11;;;;;;;8.55;6.97;;;10.90;53.10;;;;;;1491089;39;20054;-51
2021/05/02 05:21:32;;;;;;;10.13;7.22;;;10.90;53.10;;;;;;1489892;39;20028;-49
2021/05/02 05:22:53;;;;;;;7.53;6.30;;;10.90;53.20;;;;;;1491862;39;20349;-53
2021/05/02 05:24:13;;;;;;;8.93;7.07;;;10.90;53.20;;;;;;1491488;39;20040;-53
2021/05/02 05:25:34;;;;;;;9.38;6.72;;;10.90;53.20;;;;;;1490722;39;20073;-49
2021/05/02 05:26:55;;;;;;;7.32;6.55;;;10.90;53.20;;;;;;1489987;39;20023;-53
2021/05/02 05:28:16;;;;;;;8.70;6.30;;;11.00;53.10;;;;;;1491167;39;20027;-53
2021/05/02 05:29:37;;;;;;;9.57;5.97;;;11.00;53.10;;;;;;1490968;39;20023;-49
2021/05/02 05:30:58;;;;;;;8.40;6.45;;;11.00;53.00;;;;;;1490872;39;20055;-54
2021/05/02 05:32:19;;;;;;;7.57;6.50;;;10.90;53.00;;;;;;1490246;39;20402;-50
2021/05/02 05:33:40;;;;;;;7.28;5.90;;;11.00;53.10;;;;;;1490859;39;20373;-51
2021/05/02 05:35:01;;;;;;;9.07;6.18;;;10.90;53.00;;;;;;1491550;39;20281;-53
2021/05/02 05:36:22;;;;;;;7.75;5.85;;;11.00;53.10;;;;;;1490570;39;20101;-51
2021/05/02 05:37:43;;;;;;;7.65;6.22;;;10.90;53.00;;;;;;1490315;39;20040;-54
2021/05/02 05:39:04;;;;;;;8.10;5.95;;;11.00;53.10;;;;;;1490101;39;20036;-54
2021/05/02 05:40:26;;;;;;;7.95;6.35;;;11.00;53.10;;;;;;1490575;39;20365;-53
2021/05/02 05:41:47;;;;;;;8.27;5.90;;;10.90;53.10;;;;;;1490863;39;20066;-52
2021/05/02 05:43:08;;;;;;;6.63;5.93;;;10.90;53.10;;;;;;1491212;39;20031;-53
2021/05/02 05:44:29;;;;;;;8.38;5.53;;;10.90;53.00;;;;;;1488367;39;20050;-55
2021/05/02 05:45:49;;;;;;;6.65;5.40;;;11.00;53.10;;;;;;1488991;39;20052;-53
2021/05/02 05:47:12;;;;;;;8.40;5.30;;;11.00;53.10;;;;;;1490992;39;20353;-53
2021/05/02 05:48:33;;;;;;;8.13;5.53;;;11.00;53.00;;;;;;1489728;39;20032;-54
2021/05/02 05:49:54;;;;;;;10.57;5.20;;;11.00;53.00;;;;;;1489324;39;20224;-54
2021/05/02 05:51:15;;;;;;;8.98;5.65;;;11.00;52.90;;;;;;1490454;39;20054;-55
2021/05/02 05:52:36;;;;;;;6.60;5.20;;;11.00;52.80;;;;;;1491034;39;20074;-52
2021/05/02 05:53:57;;;;;;;8.13;5.18;;;11.00;53.40;;;;;;1489664;39;20361;-52
2021/05/02 05:55:19;;;;;;;7.03;5.50;;;11.00;52.80;;;;;;1491144;39;20027;-50
2021/05/02 05:56:40;;;;;;;7.47;5.65;;;11.00;52.80;;;;;;1488390;39;20027;-51
2021/05/02 05:58:00;;;;;;;8.77;5.32;;;11.00;52.80;;;;;;1490671;39;20019;-53
2021/05/02 05:59:21;;;;;;;6.00;4.85;;;11.10;52.80;;;;;;1490625;39;20024;-52
2021/05/02 06:00:42;;;;;;;6.88;4.93;;;11.00;52.70;;;;;;1491065;39;20035;-53
2021/05/02 06:02:03;;;;;;;6.40;5.47;;;11.10;52.70;;;;;;1489728;39;20085;-52
2021/05/02 06:03:24;;;;;;;6.50;5.28;;;11.10;52.80;;;;;;1490126;39;20031;-53
2021/05/02 06:04:46;;;;;;;8.35;5.25;;;11.10;52.80;;;;;;1486455;40;20020;-49
2021/05/02 06:06:07;;;;;;;7.55;5.18;;;11.10;52.70;;;;;;1488547;39;20043;-50
2021/05/02 06:07:28;;;;;;;9.07;5.13;;;11.10;52.60;;;;;;1490891;39;20418;-52
2021/05/02 06:08:49;;;;;;;7.47;5.70;;;11.10;52.50;;;;;;1490502;39;20040;-54
2021/05/02 06:10:11;;;;;;;9.43;5.60;;;11.10;52.50;;;;;;1491039;39;20030;-55
2021/05/02 06:11:33;;;;;;;7.28;5.15;;;11.10;52.50;;;;;;1490512;39;20063;-52
2021/05/02 06:12:55;;;;;;;7.07;5.38;;;11.10;52.40;;;;;;1491186;39;20144;-51
2021/05/02 06:14:16;;;;;;;8.32;5.03;;;11.10;52.40;;;;;;1491153;39;20032;-52
2021/05/02 06:15:37;;;;;;;6.60;5.35;;;11.10;52.40;;;;;;1491383;39;20031;-49
2021/05/02 06:16:57;;;;;;;6.82;4.22;;;11.10;52.40;;;;;;1489995;39;20383;-51
2021/05/02 06:18:18;;;;;;;7.38;4.63;;;11.10;52.40;;;;;;1489851;39;20034;-50
2021/05/02 06:19:39;;;;;;;7.57;4.95;;;11.10;52.40;;;;;;1490055;39;20197;-50
2021/05/02 06:21:00;;;;;;;5.63;4.68;;;11.10;52.50;;;;;;1490038;39;20364;-52
2021/05/02 06:22:21;;;;;;;5.65;4.60;;;11.10;52.50;;;;;;1488685;39;20043;-55
2021/05/02 06:23:42;;;;;;;6.97;5.20;;;11.10;52.50;;;;;;1490955;39;20023;-50
2021/05/02 06:25:05;;;;;;;8.52;5.72;;;11.10;52.50;;;;;;1489334;39;20046;-52
2021/05/02 06:26:27;;;;;;;6.53;5.18;;;11.10;52.40;;;;;;1488073;39;20032;-51
2021/05/02 06:27:48;;;;;;;10.10;5.38;;;11.10;52.40;;;;;;1491116;39;20020;-52
2021/05/02 06:29:10;;;;;;;6.38;4.72;;;11.10;52.40;;;;;;1491591;39;20047;-51
2021/05/02 06:30:31;;;;;;;6.00;4.93;;;11.10;52.40;;;;;;1491595;39;20024;-53
2021/05/02 06:31:52;;;;;;;5.88;4.80;;;11.10;52.30;;;;;;1489128;39;20153;-54
2021/05/02 06:33:13;;;;;;;11.05;5.65;;;11.20;52.30;;;;;;1488464;39;20039;-51
2021/05/02 06:34:34;;;;;;;6.82;5.40;;;11.20;52.30;;;;;;1490726;39;20035;-50
2021/05/02 06:35:54;;;;;;;6.18;5.13;;;11.20;52.40;;;;;;1491726;39;20395;-51
2021/05/02 06:37:15;;;;;;;6.97;4.90;;;11.20;52.40;;;;;;1491689;39;20035;-49
2021/05/02 06:38:36;;;;;;;5.30;4.70;;;11.20;52.30;;;;;;1491196;39;20284;-51
2021/05/02 06:39:57;;;;;;;7.38;4.93;;;11.20;52.40;;;;;;1489893;39;20048;-53
2021/05/02 06:41:18;;;;;;;6.40;4.90;;;11.20;52.40;;;;;;1490545;39;20081;-51
2021/05/02 06:42:40;;;;;;;6.28;4.80;;;11.20;52.50;;;;;;1490904;39;20035;-53
2021/05/02 06:44:01;;;;;;;5.78;4.80;;;11.20;52.60;;;;;;1491440;39;20372;-53
2021/05/02 06:45:22;;;;;;;7.03;4.43;;;11.30;52.70;;;;;;1489193;39;20063;-49
2021/05/02 06:46:43;;;;;;;7.93;4.88;;;11.30;52.60;;;;;;1490499;39;20050;-50
2021/05/02 06:48:04;;;;;;;5.75;4.97;;;11.30;52.60;;;;;;1489559;39;20035;-51
2021/05/02 06:49:25;;;;;;;6.32;4.57;;;11.30;52.60;;;;;;1490773;39;20044;-51
2021/05/02 06:50:46;;;;;;;6.60;5.10;;;11.30;52.60;;;;;;1490491;39;20031;-49
2021/05/02 06:52:07;;;;;;;7.00;4.90;;;11.40;52.70;;;;;;1489910;39;20026;-52
2021/05/02 06:53:28;;;;;;;7.90;4.75;;;11.40;52.50;;;;;;1490315;39;20216;-49
2021/05/02 06:54:49;;;;;;;11.98;4.97;;;11.40;52.50;;;;;;1489937;39;20109;-52
2021/05/02 06:56:10;;;;;;;7.63;5.32;;;11.40;52.40;;;;;;1490665;39;20110;-53
2021/05/02 06:57:32;;;;;;;5.70;4.70;;;11.50;52.40;;;;;;1491032;39;20365;-52
2021/05/02 06:58:55;;;;;;;7.78;4.97;;;11.50;52.30;;;;;;1491224;39;20042;-49
2021/05/02 07:00:16;;;;;;;7.05;4.35;;;11.50;52.30;;;;;;1491047;39;20027;-50
2021/05/02 07:01:37;;;;;;;5.55;4.50;;;11.50;52.30;;;;;;1490488;39;20030;-51
2021/05/02 07:02:58;;;;;;;6.18;4.68;;;11.50;52.10;;;;;;1489531;39;20290;-53
2021/05/02 07:04:19;;;;;;;7.47;4.70;;;11.60;52.60;;;;;;1490744;39;20047;-49
2021/05/02 07:05:40;;;;;;;7.72;4.65;;;11.60;52.00;;;;;;1490562;39;20031;-49